sensor_id;sensor_type;location;lat;lon;timestamp;P1;durP1;ratioP1;P2;durP2;ratioP2
19396;SDS011;9834;48.076;11.878;2023-04-03T00:02:08;9.03;;;6.80;;
19396;SDS011;9834;48.076;11.878;2023-04-03T00:04:36;8.57;;;5.97;;
19396;SDS011;9834;48.076;11.878;2023-04-03T00:07:04;9.47;;;6.50;;
19396;SDS011;9834;48.076;11.878;2023-04-03T00:09:33;11.67;;;7.17;;
19396;SDS011;9834;48.076;11.878;2023-04-03T00:12:00;10.77;;;7.33;;
19396;SDS011;9834;48.076;11.878;2023-04-03T00:14:28;9.67;;;7.60;;
19396;SDS011;9834;48.076;11.878;2023-04-03T00:16:55;8.97;;;6.67;;
19396;SDS011;9834;48.076;11.878;2023-04-03T00:19:23;8.50;;;6.10;;
19396;SDS011;9834;48.076;11.878;2023-04-03T00:21:51;9.07;;;6.80;;
19396;SDS011;9834;48.076;11.878;2023-04-03T00:24:18;7.40;;;6.63;;
19396;SDS011;9834;48.076;11.878;2023-04-03T00:26:47;10.13;;;6.77;;
19396;SDS011;9834;48.076;11.878;2023-04-03T00:29:15;7.77;;;6.63;;
19396;SDS011;9834;48.076;11.878;2023-04-03T00:31:43;9.07;;;6.70;;
19396;SDS011;9834;48.076;11.878;2023-04-03T00:34:10;11.30;;;7.53;;
19396;SDS011;9834;48.076;11.878;2023-04-03T00:36:38;8.53;;;5.87;;
19396;SDS011;9834;48.076;11.878;2023-04-03T00:39:05;11.37;;;7.03;;
19396;SDS011;9834;48.076;11.878;2023-04-03T00:41:33;7.97;;;6.77;;
19396;SDS011;9834;48.076;11.878;2023-04-03T00:47:05;10.50;;;6.63;;
19396;SDS011;9834;48.076;11.878;2023-04-03T00:49:35;9.77;;;6.43;;
19396;SDS011;9834;48.076;11.878;2023-04-03T00:52:03;8.67;;;6.90;;
19396;SDS011;9834;48.076;11.878;2023-04-03T00:54:33;8.87;;;6.77;;
19396;SDS011;9834;48.076;11.878;2023-04-03T00:57:03;12.73;;;7.80;;
19396;SDS011;9834;48.076;11.878;2023-04-03T00:59:31;7.57;;;6.17;;
19396;SDS011;9834;48.076;11.878;2023-04-03T01:02:01;9.20;;;7.60;;
19396;SDS011;9834;48.076;11.878;2023-04-03T01:04:31;9.30;;;6.33;;
19396;SDS011;9834;48.076;11.878;2023-04-03T01:07:01;10.30;;;6.73;;
19396;SDS011;9834;48.076;11.878;2023-04-03T01:09:31;8.80;;;6.97;;
19396;SDS011;9834;48.076;11.878;2023-04-03T01:12:12;11.00;;;7.70;;
19396;SDS011;9834;48.076;11.878;2023-04-03T01:14:41;9.53;;;7.10;;
19396;SDS011;9834;48.076;11.878;2023-04-03T01:17:23;10.10;;;7.80;;
19396;SDS011;9834;48.076;11.878;2023-04-03T01:19:57;11.57;;;8.03;;
19396;SDS011;9834;48.076;11.878;2023-04-03T01:22:59;11.03;;;7.47;;
19396;SDS011;9834;48.076;11.878;2023-04-03T01:25:37;9.80;;;7.10;;
19396;SDS011;9834;48.076;11.878;2023-04-03T01:28:07;11.37;;;7.80;;
19396;SDS011;9834;48.076;11.878;2023-04-03T01:30:41;12.47;;;8.67;;
19396;SDS011;9834;48.076;11.878;2023-04-03T01:33:15;14.70;;;9.37;;
19396;SDS011;9834;48.076;11.878;2023-04-03T01:35:43;11.07;;;7.63;;
19396;SDS011;9834;48.076;11.878;2023-04-03T01:38:11;17.20;;;8.10;;
19396;SDS011;9834;48.076;11.878;2023-04-03T01:40:38;11.33;;;8.23;;
19396;SDS011;9834;48.076;11.878;2023-04-03T01:43:06;8.93;;;7.03;;
19396;SDS011;9834;48.076;11.878;2023-04-03T01:45:33;10.53;;;8.00;;
19396;SDS011;9834;48.076;11.878;2023-04-03T01:48:01;11.20;;;8.30;;
19396;SDS011;9834;48.076;11.878;2023-04-03T01:50:31;10.37;;;8.03;;
19396;SDS011;9834;48.076;11.878;2023-04-03T01:52:59;9.67;;;7.77;;
19396;SDS011;9834;48.076;11.878;2023-04-03T01:55:26;12.47;;;7.87;;
19396;SDS011;9834;48.076;11.878;2023-04-03T01:57:54;9.60;;;6.40;;
19396;SDS011;9834;48.076;11.878;2023-04-03T02:00:21;10.83;;;6.70;;
19396;SDS011;9834;48.076;11.878;2023-04-03T02:02:49;9.93;;;7.77;;
19396;SDS011;9834;48.076;11.878;2023-04-03T02:05:17;10.93;;;7.60;;
19396;SDS011;9834;48.076;11.878;2023-04-03T02:07:46;10.47;;;7.23;;
19396;SDS011;9834;48.076;11.878;2023-04-03T02:10:13;13.00;;;8.43;;
19396;SDS011;9834;48.076;11.878;2023-04-03T02:12:41;11.87;;;7.57;;
19396;SDS011;9834;48.076;11.878;2023-04-03T02:15:09;9.00;;;7.03;;
19396;SDS011;9834;48.076;11.878;2023-04-03T02:17:36;8.77;;;6.87;;
19396;SDS011;9834;48.076;11.878;2023-04-03T02:20:04;9.67;;;6.90;;
19396;SDS011;9834;48.076;11.878;2023-04-03T02:22:33;9.40;;;6.57;;
19396;SDS011;9834;48.076;11.878;2023-04-03T02:25:02;8.43;;;6.83;;
19396;SDS011;9834;48.076;11.878;2023-04-03T02:27:30;10.10;;;7.40;;
19396;SDS011;9834;48.076;11.878;2023-04-03T02:29:58;9.40;;;6.87;;
19396;SDS011;9834;48.076;11.878;2023-04-03T02:32:25;9.67;;;7.17;;
19396;SDS011;9834;48.076;11.878;2023-04-03T02:34:52;8.20;;;6.03;;
19396;SDS011;9834;48.076;11.878;2023-04-03T02:37:20;8.20;;;6.57;;
19396;SDS011;9834;48.076;11.878;2023-04-03T02:39:47;10.00;;;7.10;;
19396;SDS011;9834;48.076;11.878;2023-04-03T02:42:16;7.60;;;6.27;;
19396;SDS011;9834;48.076;11.878;2023-04-03T02:44:44;8.10;;;6.37;;
19396;SDS011;9834;48.076;11.878;2023-04-03T02:47:11;10.17;;;7.60;;
19396;SDS011;9834;48.076;11.878;2023-04-03T02:49:39;8.90;;;6.37;;
19396;SDS011;9834;48.076;11.878;2023-04-03T02:52:06;9.27;;;7.27;;
19396;SDS011;9834;48.076;11.878;2023-04-03T02:54:33;9.40;;;7.20;;
19396;SDS011;9834;48.076;11.878;2023-04-03T02:57:01;6.87;;;5.40;;
19396;SDS011;9834;48.076;11.878;2023-04-03T02:59:30;7.37;;;6.60;;
19396;SDS011;9834;48.076;11.878;2023-04-03T03:01:57;8.57;;;7.37;;
19396;SDS011;9834;48.076;11.878;2023-04-03T03:04:24;10.43;;;7.40;;
19396;SDS011;9834;48.076;11.878;2023-04-03T03:06:52;14.00;;;6.40;;
19396;SDS011;9834;48.076;11.878;2023-04-03T03:09:20;8.60;;;5.53;;
19396;SDS011;9834;48.076;11.878;2023-04-03T03:11:47;9.37;;;6.90;;
19396;SDS011;9834;48.076;11.878;2023-04-03T03:14:14;10.13;;;6.73;;
19396;SDS011;9834;48.076;11.878;2023-04-03T03:16:43;8.93;;;7.13;;
19396;SDS011;9834;48.076;11.878;2023-04-03T03:19:10;8.20;;;5.97;;
19396;SDS011;9834;48.076;11.878;2023-04-03T03:21:38;9.77;;;7.07;;
19396;SDS011;9834;48.076;11.878;2023-04-03T03:24:05;8.33;;;6.77;;
19396;SDS011;9834;48.076;11.878;2023-04-03T03:26:33;8.83;;;6.97;;
19396;SDS011;9834;48.076;11.878;2023-04-03T03:29:01;8.57;;;7.00;;
19396;SDS011;9834;48.076;11.878;2023-04-03T03:31:29;13.53;;;7.87;;
19396;SDS011;9834;48.076;11.878;2023-04-03T03:33:57;8.97;;;7.10;;
19396;SDS011;9834;48.076;11.878;2023-04-03T03:36:25;11.07;;;7.03;;
19396;SDS011;9834;48.076;11.878;2023-04-03T03:38:52;8.03;;;6.73;;
19396;SDS011;9834;48.076;11.878;2023-04-03T03:41:20;8.83;;;6.97;;
19396;SDS011;9834;48.076;11.878;2023-04-03T03:43:48;9.00;;;7.07;;
19396;SDS011;9834;48.076;11.878;2023-04-03T03:46:15;9.87;;;7.00;;
19396;SDS011;9834;48.076;11.878;2023-04-03T03:48:43;9.27;;;6.97;;
19396;SDS011;9834;48.076;11.878;2023-04-03T03:51:12;9.43;;;7.33;;
19396;SDS011;9834;48.076;11.878;2023-04-03T03:53:39;8.93;;;6.33;;
19396;SDS011;9834;48.076;11.878;2023-04-03T03:56:07;10.37;;;6.97;;
19396;SDS011;9834;48.076;11.878;2023-04-03T03:58:35;11.33;;;7.53;;
19396;SDS011;9834;48.076;11.878;2023-04-03T04:01:03;9.07;;;6.27;;
19396;SDS011;9834;48.076;11.878;2023-04-03T04:03:31;7.83;;;6.03;;
19396;SDS011;9834;48.076;11.878;2023-04-03T04:05:59;12.93;;;7.13;;
19396;SDS011;9834;48.076;11.878;2023-04-03T04:08:28;10.03;;;6.97;;
19396;SDS011;9834;48.076;11.878;2023-04-03T04:10:55;9.10;;;7.17;;
19396;SDS011;9834;48.076;11.878;2023-04-03T04:13:22;11.13;;;6.80;;
19396;SDS011;9834;48.076;11.878;2023-04-03T04:15:50;10.53;;;5.93;;
19396;SDS011;9834;48.076;11.878;2023-04-03T04:18:17;9.80;;;6.10;;
19396;SDS011;9834;48.076;11.878;2023-04-03T04:20:45;9.07;;;6.97;;
19396;SDS011;9834;48.076;11.878;2023-04-03T04:23:12;9.53;;;7.33;;
19396;SDS011;9834;48.076;11.878;2023-04-03T04:25:41;6.23;;;5.63;;
19396;SDS011;9834;48.076;11.878;2023-04-03T04:28:11;8.30;;;5.90;;
19396;SDS011;9834;48.076;11.878;2023-04-03T04:30:39;8.00;;;6.17;;
19396;SDS011;9834;48.076;11.878;2023-04-03T04:33:06;9.00;;;6.37;;
19396;SDS011;9834;48.076;11.878;2023-04-03T04:35:34;9.17;;;6.67;;
19396;SDS011;9834;48.076;11.878;2023-04-03T04:38:02;6.30;;;5.63;;
19396;SDS011;9834;48.076;11.878;2023-04-03T04:40:29;12.37;;;7.60;;
19396;SDS011;9834;48.076;11.878;2023-04-03T04:42:58;10.80;;;6.40;;
19396;SDS011;9834;48.076;11.878;2023-04-03T04:45:26;8.33;;;7.07;;
19396;SDS011;9834;48.076;11.878;2023-04-03T04:47:54;8.87;;;6.53;;
19396;SDS011;9834;48.076;11.878;2023-04-03T04:50:22;7.33;;;5.77;;
19396;SDS011;9834;48.076;11.878;2023-04-03T04:52:50;10.20;;;6.73;;
19396;SDS011;9834;48.076;11.878;2023-04-03T04:55:17;8.67;;;6.53;;
19396;SDS011;9834;48.076;11.878;2023-04-03T04:57:45;10.60;;;7.20;;
19396;SDS011;9834;48.076;11.878;2023-04-03T05:00:15;6.53;;;5.90;;
19396;SDS011;9834;48.076;11.878;2023-04-03T05:02:43;7.63;;;6.17;;
19396;SDS011;9834;48.076;11.878;2023-04-03T05:05:10;7.20;;;5.80;;
19396;SDS011;9834;48.076;11.878;2023-04-03T05:07:38;9.73;;;6.17;;
19396;SDS011;9834;48.076;11.878;2023-04-03T05:10:07;8.33;;;6.43;;
19396;SDS011;9834;48.076;11.878;2023-04-03T05:12:35;8.73;;;6.60;;
19396;SDS011;9834;48.076;11.878;2023-04-03T05:15:03;10.67;;;7.00;;
19396;SDS011;9834;48.076;11.878;2023-04-03T05:17:32;9.73;;;7.30;;
19396;SDS011;9834;48.076;11.878;2023-04-03T05:20:00;8.47;;;6.13;;
19396;SDS011;9834;48.076;11.878;2023-04-03T05:22:31;10.00;;;7.07;;
19396;SDS011;9834;48.076;11.878;2023-04-03T05:24:59;9.73;;;6.27;;
19396;SDS011;9834;48.076;11.878;2023-04-03T05:27:27;7.67;;;5.87;;
19396;SDS011;9834;48.076;11.878;2023-04-03T05:29:54;9.27;;;6.50;;
19396;SDS011;9834;48.076;11.878;2023-04-03T05:32:23;9.80;;;7.13;;
19396;SDS011;9834;48.076;11.878;2023-04-03T05:34:54;9.37;;;6.63;;
19396;SDS011;9834;48.076;11.878;2023-04-03T05:37:21;9.23;;;6.20;;
19396;SDS011;9834;48.076;11.878;2023-04-03T05:39:49;9.27;;;6.50;;
19396;SDS011;9834;48.076;11.878;2023-04-03T05:42:17;6.50;;;5.60;;
19396;SDS011;9834;48.076;11.878;2023-04-03T05:44:44;8.97;;;6.13;;
19396;SDS011;9834;48.076;11.878;2023-04-03T05:47:12;7.37;;;6.33;;
19396;SDS011;9834;48.076;11.878;2023-04-03T05:49:40;9.07;;;6.23;;
19396;SDS011;9834;48.076;11.878;2023-04-03T05:52:11;7.77;;;5.63;;
19396;SDS011;9834;48.076;11.878;2023-04-03T05:54:48;11.23;;;6.27;;
19396;SDS011;9834;48.076;11.878;2023-04-03T05:57:15;5.30;;;4.80;;
19396;SDS011;9834;48.076;11.878;2023-04-03T05:59:43;7.17;;;6.23;;
19396;SDS011;9834;48.076;11.878;2023-04-03T06:02:12;8.20;;;5.63;;
19396;SDS011;9834;48.076;11.878;2023-04-03T06:04:41;6.03;;;4.60;;
19396;SDS011;9834;48.076;11.878;2023-04-03T06:07:11;6.07;;;4.57;;
19396;SDS011;9834;48.076;11.878;2023-04-03T06:09:40;5.40;;;4.80;;
19396;SDS011;9834;48.076;11.878;2023-04-03T06:12:09;7.50;;;5.83;;
19396;SDS011;9834;48.076;11.878;2023-04-03T06:14:36;5.37;;;4.83;;
19396;SDS011;9834;48.076;11.878;2023-04-03T06:17:04;6.13;;;4.80;;
19396;SDS011;9834;48.076;11.878;2023-04-03T06:19:31;5.50;;;4.60;;
19396;SDS011;9834;48.076;11.878;2023-04-03T06:21:59;8.80;;;5.57;;
19396;SDS011;9834;48.076;11.878;2023-04-03T06:24:28;5.40;;;4.57;;
19396;SDS011;9834;48.076;11.878;2023-04-03T06:26:57;7.87;;;4.30;;
19396;SDS011;9834;48.076;11.878;2023-04-03T06:29:24;7.27;;;4.90;;
19396;SDS011;9834;48.076;11.878;2023-04-03T06:31:52;5.40;;;4.77;;
19396;SDS011;9834;48.076;11.878;2023-04-03T06:34:19;5.47;;;4.90;;
19396;SDS011;9834;48.076;11.878;2023-04-03T06:36:47;5.53;;;4.83;;
19396;SDS011;9834;48.076;11.878;2023-04-03T06:39:16;8.97;;;4.57;;
19396;SDS011;9834;48.076;11.878;2023-04-03T06:41:47;4.73;;;4.17;;
19396;SDS011;9834;48.076;11.878;2023-04-03T06:44:15;6.00;;;4.97;;
19396;SDS011;9834;48.076;11.878;2023-04-03T06:46:43;5.23;;;3.90;;
19396;SDS011;9834;48.076;11.878;2023-04-03T06:49:11;4.63;;;4.03;;
19396;SDS011;9834;48.076;11.878;2023-04-03T06:51:40;6.70;;;4.47;;
19396;SDS011;9834;48.076;11.878;2023-04-03T06:54:07;4.30;;;3.90;;
19396;SDS011;9834;48.076;11.878;2023-04-03T06:56:35;7.43;;;4.43;;
19396;SDS011;9834;48.076;11.878;2023-04-03T06:59:04;4.53;;;3.17;;
19396;SDS011;9834;48.076;11.878;2023-04-03T07:01:31;4.30;;;3.90;;
19396;SDS011;9834;48.076;11.878;2023-04-03T07:03:59;4.70;;;3.90;;
19396;SDS011;9834;48.076;11.878;2023-04-03T07:06:26;5.43;;;4.13;;
19396;SDS011;9834;48.076;11.878;2023-04-03T07:08:53;3.67;;;3.37;;
19396;SDS011;9834;48.076;11.878;2023-04-03T07:11:24;5.27;;;4.47;;
19396;SDS011;9834;48.076;11.878;2023-04-03T07:13:52;5.60;;;3.80;;
19396;SDS011;9834;48.076;11.878;2023-04-03T07:16:21;3.13;;;2.73;;
19396;SDS011;9834;48.076;11.878;2023-04-03T07:18:48;4.60;;;3.10;;
19396;SDS011;9834;48.076;11.878;2023-04-03T07:21:16;3.63;;;3.23;;
19396;SDS011;9834;48.076;11.878;2023-04-03T07:23:44;3.90;;;3.20;;
19396;SDS011;9834;48.076;11.878;2023-04-03T07:26:11;3.43;;;3.07;;
19396;SDS011;9834;48.076;11.878;2023-04-03T07:28:38;3.13;;;2.83;;
19396;SDS011;9834;48.076;11.878;2023-04-03T07:31:07;3.87;;;2.57;;
19396;SDS011;9834;48.076;11.878;2023-04-03T07:33:38;4.57;;;3.67;;
19396;SDS011;9834;48.076;11.878;2023-04-03T07:36:07;2.80;;;2.60;;
19396;SDS011;9834;48.076;11.878;2023-04-03T07:38:36;3.97;;;2.70;;
19396;SDS011;9834;48.076;11.878;2023-04-03T07:41:04;2.57;;;2.33;;
19396;SDS011;9834;48.076;11.878;2023-04-03T07:43:31;3.10;;;2.80;;
19396;SDS011;9834;48.076;11.878;2023-04-03T07:45:59;3.93;;;3.27;;
19396;SDS011;9834;48.076;11.878;2023-04-03T07:48:27;5.47;;;2.83;;
19396;SDS011;9834;48.076;11.878;2023-04-03T07:51:00;4.77;;;3.13;;
19396;SDS011;9834;48.076;11.878;2023-04-03T07:53:28;4.33;;;3.17;;
19396;SDS011;9834;48.076;11.878;2023-04-03T07:55:56;4.57;;;2.90;;
19396;SDS011;9834;48.076;11.878;2023-04-03T07:58:24;4.13;;;2.50;;
19396;SDS011;9834;48.076;11.878;2023-04-03T08:00:52;3.87;;;3.17;;
19396;SDS011;9834;48.076;11.878;2023-04-03T08:03:19;3.73;;;3.27;;
19396;SDS011;9834;48.076;11.878;2023-04-03T08:05:48;5.33;;;4.83;;
19396;SDS011;9834;48.076;11.878;2023-04-03T08:08:18;4.73;;;3.73;;
19396;SDS011;9834;48.076;11.878;2023-04-03T08:10:48;4.30;;;3.30;;
19396;SDS011;9834;48.076;11.878;2023-04-03T08:13:16;4.63;;;3.83;;
19396;SDS011;9834;48.076;11.878;2023-04-03T08:15:44;3.87;;;2.70;;
19396;SDS011;9834;48.076;11.878;2023-04-03T08:18:12;2.83;;;2.40;;
19396;SDS011;9834;48.076;11.878;2023-04-03T08:20:39;7.77;;;3.17;;
19396;SDS011;9834;48.076;11.878;2023-04-03T08:23:07;3.40;;;3.03;;
19396;SDS011;9834;48.076;11.878;2023-04-03T08:25:39;2.50;;;2.33;;
19396;SDS011;9834;48.076;11.878;2023-04-03T08:28:07;3.23;;;2.93;;
19396;SDS011;9834;48.076;11.878;2023-04-03T08:30:35;3.07;;;2.70;;
19396;SDS011;9834;48.076;11.878;2023-04-03T08:33:02;3.07;;;2.77;;
19396;SDS011;9834;48.076;11.878;2023-04-03T08:35:31;2.70;;;2.20;;
19396;SDS011;9834;48.076;11.878;2023-04-03T08:37:58;3.57;;;2.67;;
19396;SDS011;9834;48.076;11.878;2023-04-03T08:40:26;3.20;;;2.90;;
19396;SDS011;9834;48.076;11.878;2023-04-03T08:42:57;3.57;;;2.63;;
19396;SDS011;9834;48.076;11.878;2023-04-03T08:45:40;3.40;;;2.60;;
19396;SDS011;9834;48.076;11.878;2023-04-03T08:48:12;4.37;;;2.40;;
19396;SDS011;9834;48.076;11.878;2023-04-03T08:50:44;5.00;;;3.07;;
19396;SDS011;9834;48.076;11.878;2023-04-03T08:53:15;3.47;;;3.17;;
19396;SDS011;9834;48.076;11.878;2023-04-03T08:55:45;6.03;;;2.47;;
19396;SDS011;9834;48.076;11.878;2023-04-03T08:58:16;2.80;;;2.53;;
19396;SDS011;9834;48.076;11.878;2023-04-03T09:00:47;3.37;;;2.57;;
19396;SDS011;9834;48.076;11.878;2023-04-03T09:03:18;2.97;;;2.67;;
19396;SDS011;9834;48.076;11.878;2023-04-03T09:05:47;11.53;;;3.17;;
19396;SDS011;9834;48.076;11.878;2023-04-03T09:08:21;4.47;;;2.60;;
19396;SDS011;9834;48.076;11.878;2023-04-03T09:10:53;3.00;;;2.70;;
19396;SDS011;9834;48.076;11.878;2023-04-03T09:13:29;3.23;;;2.47;;
19396;SDS011;9834;48.076;11.878;2023-04-03T09:16:02;3.27;;;2.40;;
19396;SDS011;9834;48.076;11.878;2023-04-03T09:18:33;6.47;;;2.47;;
19396;SDS011;9834;48.076;11.878;2023-04-03T09:21:07;3.10;;;2.80;;
19396;SDS011;9834;48.076;11.878;2023-04-03T09:23:44;2.70;;;2.37;;
19396;SDS011;9834;48.076;11.878;2023-04-03T09:26:15;5.23;;;2.50;;
19396;SDS011;9834;48.076;11.878;2023-04-03T09:28:47;2.27;;;2.07;;
19396;SDS011;9834;48.076;11.878;2023-04-03T09:31:19;2.43;;;2.13;;
19396;SDS011;9834;48.076;11.878;2023-04-03T09:33:49;2.77;;;2.43;;
19396;SDS011;9834;48.076;11.878;2023-04-03T09:39:09;4.80;;;2.97;;
19396;SDS011;9834;48.076;11.878;2023-04-03T09:41:39;2.20;;;2.00;;
19396;SDS011;9834;48.076;11.878;2023-04-03T09:44:19;4.80;;;2.50;;
19396;SDS011;9834;48.076;11.878;2023-04-03T09:46:48;2.63;;;2.40;;
19396;SDS011;9834;48.076;11.878;2023-04-03T09:49:16;2.70;;;2.43;;
19396;SDS011;9834;48.076;11.878;2023-04-03T09:51:45;2.70;;;2.50;;
19396;SDS011;9834;48.076;11.878;2023-04-03T09:57:01;3.13;;;2.27;;
19396;SDS011;9834;48.076;11.878;2023-04-03T09:59:34;1.93;;;1.83;;
19396;SDS011;9834;48.076;11.878;2023-04-03T10:02:17;2.60;;;2.40;;
19396;SDS011;9834;48.076;11.878;2023-04-03T10:04:50;1.90;;;1.67;;
19396;SDS011;9834;48.076;11.878;2023-04-03T10:07:28;1.87;;;1.70;;
19396;SDS011;9834;48.076;11.878;2023-04-03T10:09:59;2.00;;;1.67;;
19396;SDS011;9834;48.076;11.878;2023-04-03T10:12:28;1.50;;;1.40;;
19396;SDS011;9834;48.076;11.878;2023-04-03T10:14:58;2.47;;;1.77;;
19396;SDS011;9834;48.076;11.878;2023-04-03T10:17:30;2.20;;;2.00;;
19396;SDS011;9834;48.076;11.878;2023-04-03T10:20:13;2.20;;;1.80;;
19396;SDS011;9834;48.076;11.878;2023-04-03T10:22:54;2.87;;;1.93;;
19396;SDS011;9834;48.076;11.878;2023-04-03T10:25:30;3.43;;;2.30;;
19396;SDS011;9834;48.076;11.878;2023-04-03T10:28:03;2.23;;;2.03;;
19396;SDS011;9834;48.076;11.878;2023-04-03T10:30:39;4.27;;;1.83;;
19396;SDS011;9834;48.076;11.878;2023-04-03T10:33:18;2.07;;;1.60;;
19396;SDS011;9834;48.076;11.878;2023-04-03T10:35:56;1.37;;;1.20;;
19396;SDS011;9834;48.076;11.878;2023-04-03T10:38:36;3.97;;;1.83;;
19396;SDS011;9834;48.076;11.878;2023-04-03T10:41:14;2.40;;;2.20;;
19396;SDS011;9834;48.076;11.878;2023-04-03T10:43:50;2.43;;;2.27;;
19396;SDS011;9834;48.076;11.878;2023-04-03T10:46:28;2.73;;;2.53;;
19396;SDS011;9834;48.076;11.878;2023-04-03T10:49:05;3.13;;;2.83;;
19396;SDS011;9834;48.076;11.878;2023-04-03T10:51:47;5.47;;;2.83;;
19396;SDS011;9834;48.076;11.878;2023-04-03T10:54:18;2.53;;;2.33;;
19396;SDS011;9834;48.076;11.878;2023-04-03T10:56:52;3.23;;;2.93;;
19396;SDS011;9834;48.076;11.878;2023-04-03T10:59:23;4.83;;;3.07;;
19396;SDS011;9834;48.076;11.878;2023-04-03T11:01:56;4.47;;;3.13;;
19396;SDS011;9834;48.076;11.878;2023-04-03T11:04:27;2.73;;;2.53;;
19396;SDS011;9834;48.076;11.878;2023-04-03T11:06:59;3.40;;;3.10;;
19396;SDS011;9834;48.076;11.878;2023-04-03T11:09:29;3.50;;;2.90;;
19396;SDS011;9834;48.076;11.878;2023-04-03T11:12:02;3.27;;;2.97;;
19396;SDS011;9834;48.076;11.878;2023-04-03T11:14:32;2.70;;;2.50;;
19396;SDS011;9834;48.076;11.878;2023-04-03T11:17:09;2.63;;;2.43;;
19396;SDS011;9834;48.076;11.878;2023-04-03T11:19:47;7.33;;;2.30;;
19396;SDS011;9834;48.076;11.878;2023-04-03T11:22:21;2.80;;;2.20;;
19396;SDS011;9834;48.076;11.878;2023-04-03T11:24:55;2.73;;;2.53;;
19396;SDS011;9834;48.076;11.878;2023-04-03T11:27:30;1.97;;;1.83;;
19396;SDS011;9834;48.076;11.878;2023-04-03T11:30:05;2.73;;;2.13;;
19396;SDS011;9834;48.076;11.878;2023-04-03T11:32:44;3.23;;;2.67;;
19396;SDS011;9834;48.076;11.878;2023-04-03T11:35:22;2.23;;;1.67;;
19396;SDS011;9834;48.076;11.878;2023-04-03T11:37:52;2.67;;;2.40;;
19396;SDS011;9834;48.076;11.878;2023-04-03T11:40:21;2.27;;;2.07;;
19396;SDS011;9834;48.076;11.878;2023-04-03T11:42:52;2.00;;;1.70;;
19396;SDS011;9834;48.076;11.878;2023-04-03T11:45:34;3.27;;;2.20;;
19396;SDS011;9834;48.076;11.878;2023-04-03T11:48:05;3.43;;;2.13;;
19396;SDS011;9834;48.076;11.878;2023-04-03T11:50:41;4.00;;;2.10;;
19396;SDS011;9834;48.076;11.878;2023-04-03T11:53:26;2.40;;;2.20;;
19396;SDS011;9834;48.076;11.878;2023-04-03T11:55:57;2.10;;;1.90;;
19396;SDS011;9834;48.076;11.878;2023-04-03T11:58:27;2.80;;;2.07;;
19396;SDS011;9834;48.076;11.878;2023-04-03T12:04:08;3.00;;;1.60;;
19396;SDS011;9834;48.076;11.878;2023-04-03T12:12:28;1.50;;;1.40;;
19396;SDS011;9834;48.076;11.878;2023-04-03T12:15:18;2.10;;;1.83;;
19396;SDS011;9834;48.076;11.878;2023-04-03T12:17:47;5.20;;;2.17;;
19396;SDS011;9834;48.076;11.878;2023-04-03T12:23:28;2.13;;;1.80;;
19396;SDS011;9834;48.076;11.878;2023-04-03T12:26:05;7.00;;;2.03;;
19396;SDS011;9834;48.076;11.878;2023-04-03T12:28:46;2.33;;;1.43;;
19396;SDS011;9834;48.076;11.878;2023-04-03T12:31:18;1.70;;;1.60;;
19396;SDS011;9834;48.076;11.878;2023-04-03T12:33:59;1.97;;;1.70;;
19396;SDS011;9834;48.076;11.878;2023-04-03T12:36:40;2.20;;;1.87;;
19396;SDS011;9834;48.076;11.878;2023-04-03T12:42:20;3.23;;;1.40;;
19396;SDS011;9834;48.076;11.878;2023-04-03T12:45:00;1.80;;;1.50;;
19396;SDS011;9834;48.076;11.878;2023-04-03T12:47:34;1.30;;;1.20;;
19396;SDS011;9834;48.076;11.878;2023-04-03T12:50:04;1.40;;;0.97;;
19396;SDS011;9834;48.076;11.878;2023-04-03T12:52:47;1.43;;;1.23;;
19396;SDS011;9834;48.076;11.878;2023-04-03T12:55:21;3.70;;;1.30;;
19396;SDS011;9834;48.076;11.878;2023-04-03T12:57:49;1.17;;;1.07;;
19396;SDS011;9834;48.076;11.878;2023-04-03T13:00:20;1.23;;;1.17;;
19396;SDS011;9834;48.076;11.878;2023-04-03T13:02:53;1.50;;;1.40;;
19396;SDS011;9834;48.076;11.878;2023-04-03T13:05:20;1.60;;;1.40;;
19396;SDS011;9834;48.076;11.878;2023-04-03T13:07:51;1.17;;;1.13;;
19396;SDS011;9834;48.076;11.878;2023-04-03T13:10:23;1.60;;;1.50;;
19396;SDS011;9834;48.076;11.878;2023-04-03T13:12:52;0.77;;;0.77;;
19396;SDS011;9834;48.076;11.878;2023-04-03T13:15:21;1.17;;;1.07;;
19396;SDS011;9834;48.076;11.878;2023-04-03T13:17:51;1.90;;;1.07;;
19396;SDS011;9834;48.076;11.878;2023-04-03T13:20:21;1.73;;;1.27;;
19396;SDS011;9834;48.076;11.878;2023-04-03T13:22:53;3.43;;;1.30;;
19396;SDS011;9834;48.076;11.878;2023-04-03T13:25:24;0.90;;;0.90;;
19396;SDS011;9834;48.076;11.878;2023-04-03T13:27:57;1.07;;;0.90;;
19396;SDS011;9834;48.076;11.878;2023-04-03T13:30:27;0.90;;;0.90;;
19396;SDS011;9834;48.076;11.878;2023-04-03T13:32:56;1.60;;;1.30;;
19396;SDS011;9834;48.076;11.878;2023-04-03T13:35:30;0.67;;;0.67;;
19396;SDS011;9834;48.076;11.878;2023-04-03T13:38:03;0.73;;;0.73;;
19396;SDS011;9834;48.076;11.878;2023-04-03T13:40:33;0.80;;;0.80;;
19396;SDS011;9834;48.076;11.878;2023-04-03T13:43:17;3.07;;;1.27;;
19396;SDS011;9834;48.076;11.878;2023-04-03T13:45:53;1.43;;;1.00;;
19396;SDS011;9834;48.076;11.878;2023-04-03T13:48:23;2.67;;;0.97;;
19396;SDS011;9834;48.076;11.878;2023-04-03T13:50:55;1.30;;;0.90;;
19396;SDS011;9834;48.076;11.878;2023-04-03T13:53:26;1.63;;;0.90;;
19396;SDS011;9834;48.076;11.878;2023-04-03T13:55:58;1.30;;;1.20;;
19396;SDS011;9834;48.076;11.878;2023-04-03T13:58:32;0.77;;;0.70;;
19396;SDS011;9834;48.076;11.878;2023-04-03T14:01:06;0.53;;;0.53;;
19396;SDS011;9834;48.076;11.878;2023-04-03T14:03:40;1.67;;;0.70;;
19396;SDS011;9834;48.076;11.878;2023-04-03T14:06:10;0.60;;;0.60;;
19396;SDS011;9834;48.076;11.878;2023-04-03T14:08:42;1.03;;;0.97;;
19396;SDS011;9834;48.076;11.878;2023-04-03T14:11:11;4.20;;;1.23;;
19396;SDS011;9834;48.076;11.878;2023-04-03T14:13:41;4.87;;;1.27;;
19396;SDS011;9834;48.076;11.878;2023-04-03T14:16:12;1.13;;;1.03;;
19396;SDS011;9834;48.076;11.878;2023-04-03T14:18:42;2.90;;;1.60;;
19396;SDS011;9834;48.076;11.878;2023-04-03T14:21:10;1.47;;;0.97;;
19396;SDS011;9834;48.076;11.878;2023-04-03T14:23:38;5.83;;;1.27;;
19396;SDS011;9834;48.076;11.878;2023-04-03T14:26:10;1.00;;;0.80;;
19396;SDS011;9834;48.076;11.878;2023-04-03T14:28:39;2.73;;;0.87;;
19396;SDS011;9834;48.076;11.878;2023-04-03T14:31:07;1.90;;;1.00;;
19396;SDS011;9834;48.076;11.878;2023-04-03T14:33:36;1.00;;;0.90;;
19396;SDS011;9834;48.076;11.878;2023-04-03T14:36:05;2.40;;;0.90;;
19396;SDS011;9834;48.076;11.878;2023-04-03T14:38:39;2.57;;;1.00;;
19396;SDS011;9834;48.076;11.878;2023-04-03T14:41:09;1.80;;;1.00;;
19396;SDS011;9834;48.076;11.878;2023-04-03T14:43:40;0.83;;;0.80;;
19396;SDS011;9834;48.076;11.878;2023-04-03T14:46:10;1.03;;;0.87;;
19396;SDS011;9834;48.076;11.878;2023-04-03T14:48:40;1.67;;;1.13;;
19396;SDS011;9834;48.076;11.878;2023-04-03T14:51:08;0.70;;;0.70;;
19396;SDS011;9834;48.076;11.878;2023-04-03T14:53:37;0.90;;;0.70;;
19396;SDS011;9834;48.076;11.878;2023-04-03T14:56:11;0.60;;;0.60;;
19396;SDS011;9834;48.076;11.878;2023-04-03T14:58:40;1.10;;;1.00;;
19396;SDS011;9834;48.076;11.878;2023-04-03T15:01:09;0.77;;;0.77;;
19396;SDS011;9834;48.076;11.878;2023-04-03T15:03:37;1.73;;;0.90;;
19396;SDS011;9834;48.076;11.878;2023-04-03T15:06:05;1.80;;;0.67;;
19396;SDS011;9834;48.076;11.878;2023-04-03T15:08:33;0.70;;;0.70;;
19396;SDS011;9834;48.076;11.878;2023-04-03T15:11:00;2.30;;;0.57;;
19396;SDS011;9834;48.076;11.878;2023-04-03T15:13:29;0.70;;;0.70;;
19396;SDS011;9834;48.076;11.878;2023-04-03T15:15:56;0.50;;;0.50;;
19396;SDS011;9834;48.076;11.878;2023-04-03T15:18:25;1.20;;;1.10;;
19396;SDS011;9834;48.076;11.878;2023-04-03T15:20:53;3.00;;;0.83;;
19396;SDS011;9834;48.076;11.878;2023-04-03T15:23:21;1.47;;;1.10;;
19396;SDS011;9834;48.076;11.878;2023-04-03T15:25:51;1.30;;;0.83;;
19396;SDS011;9834;48.076;11.878;2023-04-03T15:28:22;0.50;;;0.50;;